Olympic National Park, WA

10:42 AM PDT on July 25, 2016 (GMT -0700)
Lake Dawn | | Change Station

Elev 1864 ft 48.04 °N, 123.43 °W | Updated 12 minutes ago

Clear
Clear
75.2 °F
Feels Like 77 °F
N
6.0
Wind Variable Wind from SE
Gusts 9.2 mph

Today
High -- | Low -- °F
--% Chance of Precip.
Yesterday
High -- | Low -- °F
Precip. -- in
Pressure 30.09 in
Visibility 10.0 miles
Clouds Clear
Heat Index 77 °F
Dew Point 46 °F
Humidity 36%
Rainfall 0.00 in
Snow Depth Not available.
5:42 AM 8:58 PM
Waning Gibbous, 64% visible
METAR KCLM 251653Z AUTO 30007KT 10SM CLR 18/13 A3009 RMK AO2 SLP189 T01780128
Pressure 30.09 in
Visibility 10.0 miles
Clouds Clear
Heat Index 77 °F
Dew Point 46 °F
Humidity 36%
Rainfall 0.00 in
Snow Depth Not available.
5:42 AM 8:58 PM
Waning Gibbous, 64% visible
METAR KCLM 251653Z AUTO 30007KT 10SM CLR 18/13 A3009 RMK AO2 SLP189 T01780128

10-Day Weather Forecast

Almanac

Astronomy

Jul. 25, 2016 Rise Set
Actual Time
Civil Twilight
Nautical Twilight
Astronomical Twilight
Moon
Length of Visible Light
Length of Day
Tomorrow will be .
, % of the Moon is Illuminated

Today's Extremes

State Highs State Lows

Community

WunderPhotos

Upload Photos

1,927,364 photos uploaded!

WunderBlog® & News

Nearby

Air Quality

  Air Quality AQ Index Pollutant
Not available.

Snow Depth

Station Depth Elevation

Earthquake Activity

City Distance Mag. Time & Date
Minimum magnitude displayed is 2.5.

Coastal Water Temperatures

Place Temperature

Stations

Nearby Weather Stations

Station Location Temp. Windchill Dew Point Humidity Wind Precip. Elev Updated Type
                   

Watches & Warnings

There are currently no watches in effect.